createdAt,value
2023-02-02T10:50:21.763Z,5.20
2023-02-02T10:55:54.353Z,5.30
2023-02-02T10:58:31.112Z,5.30
2023-02-02T11:01:29.814Z,5.30
2023-02-02T11:07:48.703Z,5.40
2023-02-02T11:29:14.363Z,5.60
2023-02-02T11:32:17.834Z,5.80
2023-02-02T11:38:01.450Z,5.90
2023-02-02T14:19:34.446Z,5.00
2023-02-02T14:22:15.129Z,5.00
2023-02-02T14:24:49.449Z,4.90
2023-02-02T14:33:53.458Z,4.80
2023-02-02T14:36:20.733Z,5.60
2023-02-02T14:39:05.775Z,4.80
2023-02-02T14:42:17.571Z,4.70
2023-02-02T14:48:14.210Z,4.90
2023-02-02T15:02:03.214Z,4.80
2023-02-02T15:04:32.906Z,4.70
2023-02-02T15:08:04.104Z,4.70
2023-02-02T15:17:03.856Z,4.60
2023-02-02T15:19:56.459Z,4.40
2023-02-02T15:22:48.236Z,4.60
2023-02-02T15:25:43.420Z,4.60
2023-02-02T15:36:33.892Z,4.60
2023-02-02T15:42:12.133Z,4.40
2023-02-02T15:47:17.224Z,4.40
2023-02-02T16:02:43.298Z,4.60
2023-02-02T16:08:34.704Z,4.60
2023-02-02T16:11:09.451Z,4.20
2023-02-02T16:16:07.723Z,4.40
2023-02-02T16:18:35.865Z,4.40
2023-02-02T16:21:16.407Z,4.40
2023-02-02T16:26:15.330Z,4.20
2023-02-02T16:31:14.696Z,4.60
2023-02-02T16:33:46.901Z,4.40
2023-02-02T16:36:27.936Z,4.10
2023-02-02T16:57:21.857Z,4.50
2023-02-02T17:10:18.968Z,4.30
2023-02-02T17:15:18.920Z,4.40
2023-02-02T17:17:48.408Z,4.40
2023-02-02T17:20:19.342Z,4.50
2023-02-02T17:22:50.607Z,4.00
2023-02-02T17:25:38.600Z,4.30
2023-02-02T17:30:47.328Z,4.20
2023-02-02T17:33:16.716Z,4.30
2023-02-02T17:35:54.416Z,4.20
2023-02-02T17:38:33.751Z,4.10
2023-02-02T17:41:02.763Z,3.60
2023-02-02T17:46:04.487Z,4.00
2023-02-02T17:48:37.878Z,4.30
2023-02-02T17:51:07.361Z,4.10
2023-02-02T17:53:37.749Z,4.30
2023-02-02T17:56:09.767Z,4.10
2023-02-02T17:58:45.092Z,4.20
2023-02-02T18:01:28.070Z,4.10
2023-02-02T18:03:56.332Z,4.30
2023-02-02T18:09:18.989Z,4.30
2023-02-02T18:11:52.419Z,4.30
2023-02-02T18:17:21.852Z,4.50
2023-02-02T18:22:55.355Z,4.30
2023-02-02T18:25:26.577Z,4.60
2023-02-02T18:28:00.539Z,4.50
2023-02-02T18:30:33.045Z,4.70
2023-02-02T18:33:08.439Z,4.50
2023-02-02T18:36:16.567Z,4.50
2023-02-02T18:42:48.060Z,4.70
2023-02-02T18:45:35.664Z,4.60
2023-02-02T18:48:26.965Z,4.70
2023-02-02T18:51:39.590Z,4.90
2023-02-02T19:01:21.928Z,4.70
2023-02-02T19:04:01.420Z,4.80
2023-02-02T19:07:17.319Z,4.80
2023-02-02T19:13:14.457Z,4.80
2023-02-02T19:15:48.196Z,5.00
2023-02-02T19:22:15.017Z,4.90
2023-02-02T19:27:32.605Z,4.90
2023-02-02T19:30:07.029Z,4.80
2023-02-02T19:32:35.060Z,4.80
2023-02-02T19:35:06.940Z,5.10
2023-02-02T19:37:44.072Z,4.80
2023-02-02T19:40:16.542Z,5.00
2023-02-02T19:43:12.789Z,5.50
2023-02-02T19:45:43.473Z,6.60
2023-02-02T19:48:15.951Z,4.90
2023-02-02T19:50:44.725Z,5.10
2023-02-02T19:53:45.555Z,4.60
2023-02-02T19:56:46.679Z,4.90
2023-02-02T19:59:57.982Z,5.00
2023-02-02T20:03:21.976Z,5.70
2023-02-02T20:06:00.332Z,5.10
2023-02-02T20:08:49.686Z,5.00
2023-02-02T20:11:38.987Z,5.10
2023-02-02T20:14:20.615Z,5.30
2023-02-02T20:17:21.544Z,5.20
2023-02-02T20:19:49.332Z,5.10
2023-02-02T20:22:34.550Z,5.80
2023-02-02T20:25:13.712Z,5.30
2023-02-02T20:28:13.679Z,5.40
2023-02-02T20:35:17.536Z,5.70
2023-02-02T20:38:02.153Z,5.70
2023-02-02T20:41:06.847Z,5.90
2023-02-02T20:43:50.759Z,5.90
2023-02-02T20:46:30.339Z,5.80
2023-02-02T20:49:13.973Z,6.10
2023-02-02T20:51:47.199Z,6.10
2023-02-02T20:54:14.103Z,6.00
2023-02-02T20:56:41.581Z,6.30
2023-02-02T20:59:11.840Z,6.30
2023-02-02T21:01:41.200Z,6.50
2023-02-02T21:04:26.860Z,6.50
2023-02-02T21:07:05.534Z,6.60
2023-02-02T21:12:40.680Z,6.70
2023-02-02T21:15:55.162Z,6.50
2023-02-02T21:18:25.816Z,6.70
2023-02-02T21:21:00.810Z,6.80
2023-02-02T21:23:30.240Z,6.00
2023-02-02T21:26:05.842Z,6.80
2023-02-02T21:28:40.508Z,7.20
2023-02-02T21:31:12.005Z,6.80
2023-02-02T21:33:45.286Z,6.90
2023-02-02T21:36:27.207Z,7.00
2023-02-02T21:40:06.723Z,6.90
2023-02-02T22:09:43.243Z,7.10
2023-02-02T22:27:31.636Z,7.20
2023-02-02T22:30:14.907Z,6.90
2023-02-02T22:32:41.969Z,7.10
2023-02-02T22:35:11.994Z,7.70
2023-02-02T22:37:44.604Z,7.00
2023-02-02T22:40:12.745Z,7.10
2023-02-02T22:42:40.142Z,7.20
2023-02-02T22:45:12.563Z,7.60
2023-02-02T22:47:41.937Z,7.10
2023-02-02T22:50:09.589Z,7.20
2023-02-02T22:52:36.669Z,6.90
2023-02-02T22:55:11.083Z,7.10
2023-02-02T22:57:40.991Z,7.10
2023-02-02T23:00:14.951Z,7.10
2023-02-02T23:02:43.869Z,7.30
2023-02-02T23:05:15.105Z,7.30
2023-02-02T23:07:55.670Z,7.20
2023-02-02T23:13:22.517Z,7.20
2023-02-02T23:16:44.444Z,7.40
2023-02-02T23:19:14.720Z,7.30
2023-02-02T23:21:45.952Z,7.30
2023-02-02T23:25:06.917Z,8.40
2023-02-02T23:28:37.229Z,7.30
